createdAt,value
2018-12-23T00:00:07.635Z,10.88
2018-12-23T00:02:03.492Z,10.92
2018-12-23T00:03:03.440Z,10.86
2018-12-23T00:04:03.463Z,10.83
2018-12-23T00:05:11.300Z,10.81
2018-12-23T00:06:03.394Z,10.86
2018-12-23T00:07:03.411Z,10.89
2018-12-23T00:08:03.384Z,10.84
2018-12-23T00:09:03.385Z,10.88
2018-12-23T00:10:03.388Z,10.89
2018-12-23T00:11:03.399Z,10.81
2018-12-23T00:12:03.942Z,10.80
2018-12-23T00:13:03.375Z,10.84
2018-12-23T00:14:03.380Z,10.73
2018-12-23T00:15:03.357Z,10.81
2018-12-23T00:16:03.336Z,10.68
2018-12-23T00:17:03.341Z,10.71
2018-12-23T00:18:03.340Z,10.65
2018-12-23T00:19:03.353Z,10.62
2018-12-23T00:20:03.345Z,10.71
2018-12-23T00:21:03.309Z,10.66
2018-12-23T00:22:03.317Z,10.53
2018-12-23T00:23:03.301Z,10.55
2018-12-23T00:24:03.344Z,10.52
2018-12-23T00:25:03.306Z,10.58
2018-12-23T00:26:03.305Z,10.55
2018-12-23T00:27:03.294Z,10.55
2018-12-23T00:28:03.270Z,10.52
2018-12-23T00:29:03.278Z,10.52
2018-12-23T00:30:03.260Z,10.58
2018-12-23T00:31:03.269Z,10.52
2018-12-23T00:32:03.257Z,10.43
2018-12-23T00:33:03.246Z,10.39
2018-12-23T00:34:03.252Z,10.44
2018-12-23T00:35:03.250Z,10.40
2018-12-23T00:36:03.237Z,10.40
2018-12-23T00:37:03.223Z,10.44
2018-12-23T00:38:03.220Z,10.42
2018-12-23T00:39:03.213Z,10.39
2018-12-23T00:40:03.209Z,10.40
2018-12-23T00:41:03.210Z,10.46
2018-12-23T00:42:03.217Z,10.42
2018-12-23T00:43:03.216Z,10.42
2018-12-23T00:44:03.185Z,10.42
2018-12-23T00:45:03.187Z,10.44
2018-12-23T00:46:03.170Z,10.47
2018-12-23T00:47:03.167Z,10.40
2018-12-23T00:48:03.179Z,10.39
2018-12-23T00:49:03.175Z,10.43
2018-12-23T00:50:03.154Z,10.36
2018-12-23T00:51:03.175Z,10.36
2018-12-23T00:52:03.294Z,10.32
2018-12-23T00:53:03.192Z,10.32
2018-12-23T00:54:03.208Z,10.43
2018-12-23T00:55:03.155Z,10.39
2018-12-23T00:56:03.167Z,10.42
2018-12-23T00:57:03.130Z,10.34
2018-12-23T00:58:03.140Z,10.40
2018-12-23T00:59:03.117Z,10.34
2018-12-23T01:00:03.130Z,10.30
2018-12-23T01:01:03.137Z,10.33
2018-12-23T01:02:03.108Z,10.32
2018-12-23T01:03:03.087Z,10.40
2018-12-23T01:04:03.104Z,10.26
2018-12-23T01:05:03.102Z,10.28
2018-12-23T01:06:03.065Z,10.33
2018-12-23T01:07:03.101Z,10.34
2018-12-23T01:08:03.076Z,10.34
2018-12-23T01:09:03.100Z,10.37
2018-12-23T01:10:03.043Z,10.36
2018-12-23T01:11:03.083Z,10.37
2018-12-23T01:12:03.039Z,10.37
2018-12-23T01:13:03.025Z,10.32
2018-12-23T01:14:03.034Z,10.34
2018-12-23T01:15:03.040Z,10.30
2018-12-23T01:16:03.021Z,10.26
2018-12-23T01:17:03.048Z,10.18
2018-12-23T01:18:03.038Z,10.26
2018-12-23T01:19:11.686Z,10.32
2018-12-23T01:21:07.506Z,10.24
2018-12-23T01:22:07.464Z,10.25
2018-12-23T01:23:07.465Z,10.25
2018-12-23T01:24:07.450Z,10.30
2018-12-23T01:25:07.462Z,10.26
2018-12-23T01:26:07.441Z,10.28
2018-12-23T01:27:07.443Z,10.30
2018-12-23T01:28:07.444Z,10.26
2018-12-23T01:29:07.448Z,10.25
2018-12-23T01:30:07.446Z,10.25
2018-12-23T01:31:07.438Z,10.28
2018-12-23T01:32:07.414Z,10.34
2018-12-23T01:33:07.411Z,10.34
2018-12-23T01:34:07.456Z,10.42
2018-12-23T01:35:07.432Z,10.33
2018-12-23T01:36:07.390Z,10.28
2018-12-23T01:37:07.398Z,10.22
2018-12-23T01:38:07.394Z,10.32
2018-12-23T01:39:07.408Z,10.30
2018-12-23T01:40:07.361Z,10.37
2018-12-23T01:41:07.367Z,10.22
2018-12-23T01:42:07.383Z,10.33
2018-12-23T01:43:07.348Z,10.36
2018-12-23T01:44:07.370Z,10.28
2018-12-23T01:45:07.336Z,10.30
2018-12-23T01:46:07.333Z,10.26
2018-12-23T01:47:07.340Z,10.26
2018-12-23T01:48:07.345Z,10.19
2018-12-23T01:49:07.357Z,10.26
2018-12-23T01:50:07.338Z,10.26
2018-12-23T01:51:07.332Z,10.26
2018-12-23T01:52:07.305Z,10.25
2018-12-23T01:53:07.308Z,10.30
2018-12-23T01:54:07.296Z,10.30
2018-12-23T01:55:07.286Z,10.32
2018-12-23T01:56:07.295Z,10.42
2018-12-23T01:57:07.282Z,10.37
2018-12-23T01:58:07.292Z,10.34
2018-12-23T01:59:07.254Z,10.34
2018-12-23T02:00:07.277Z,10.32
2018-12-23T02:01:07.253Z,10.33
2018-12-23T02:02:07.254Z,10.32
2018-12-23T02:03:07.252Z,10.26
2018-12-23T02:04:07.217Z,10.21
2018-12-23T02:05:07.224Z,10.25
2018-12-23T02:06:07.218Z,10.30
2018-12-23T02:07:15.871Z,10.12
2018-12-23T02:09:11.694Z,10.17
2018-12-23T02:10:21.166Z,10.18
2018-12-23T02:12:16.168Z,10.30
2018-12-23T02:13:16.146Z,10.28
2018-12-23T02:14:25.611Z,10.28
2018-12-23T02:16:22.779Z,10.32
2018-12-23T02:17:20.624Z,10.26
2018-12-23T02:18:20.611Z,10.22
2018-12-23T02:19:20.611Z,10.33
2018-12-23T02:20:20.595Z,10.28
2018-12-23T02:21:20.598Z,10.28
2018-12-23T02:22:20.587Z,10.26
2018-12-23T02:23:20.586Z,10.25
2018-12-23T02:24:20.590Z,10.33
2018-12-23T02:25:20.569Z,10.26
2018-12-23T02:26:20.578Z,10.30
2018-12-23T02:27:20.583Z,10.32
2018-12-23T02:28:20.547Z,10.25
2018-12-23T02:29:20.536Z,10.30
2018-12-23T02:30:20.530Z,10.28
2018-12-23T02:31:20.546Z,10.22
2018-12-23T02:32:20.553Z,10.21
2018-12-23T02:33:20.530Z,10.25
2018-12-23T02:34:20.510Z,10.21
2018-12-23T02:35:20.541Z,10.22
2018-12-23T02:36:20.521Z,10.22
2018-12-23T02:37:20.499Z,10.26
2018-12-23T02:38:20.494Z,10.18
2018-12-23T02:39:20.504Z,10.25
2018-12-23T02:40:20.505Z,10.18
2018-12-23T02:41:20.479Z,10.12
2018-12-23T02:42:20.507Z,10.19
2018-12-23T02:43:20.462Z,10.18
2018-12-23T02:44:20.456Z,10.17
2018-12-23T02:45:20.443Z,10.21
2018-12-23T02:46:20.450Z,10.15
2018-12-23T02:47:20.439Z,10.21
2018-12-23T02:48:20.454Z,10.21
2018-12-23T02:49:20.424Z,10.19
2018-12-23T02:50:20.416Z,10.10
2018-12-23T02:51:20.411Z,10.21
2018-12-23T02:52:20.411Z,10.12
2018-12-23T02:53:20.394Z,10.15
2018-12-23T02:54:20.402Z,10.19
2018-12-23T02:55:20.406Z,10.17
2018-12-23T02:56:20.457Z,10.18
2018-12-23T02:57:20.419Z,10.19
2018-12-23T03:14:12.034Z,10.21
2018-12-23T03:15:12.008Z,10.09
2018-12-23T03:16:12.018Z,10.04
2018-12-23T03:17:11.991Z,10.03
2018-12-23T03:18:11.984Z,10.06
2018-12-23T03:19:11.966Z,10.04
2018-12-23T03:20:11.975Z,10.01
2018-12-23T03:21:11.954Z,10.07
2018-12-23T03:22:11.970Z,10.07
2018-12-23T03:23:11.943Z,10.03
2018-12-23T03:24:11.944Z,10.04
2018-12-23T03:25:11.927Z,10.17
2018-12-23T03:26:11.945Z,10.10
2018-12-23T03:27:11.934Z,10.07
2018-12-23T03:28:11.910Z,10.03
2018-12-23T03:29:11.917Z,10.06
2018-12-23T03:30:12.036Z,10.06
2018-12-23T03:31:11.898Z,10.04
2018-12-23T03:32:11.884Z,10.12
2018-12-23T03:33:11.883Z,10.06
2018-12-23T03:34:11.906Z,10.17
2018-12-23T03:35:11.878Z,10.01
2018-12-23T03:36:15.190Z,10.06
2018-12-23T03:37:11.848Z,10.04
2018-12-23T03:38:11.833Z,10.01
2018-12-23T03:39:11.852Z,10.03
2018-12-23T03:40:11.822Z,10.04
2018-12-23T03:41:11.819Z,10.07
2018-12-23T03:42:11.834Z,10.07
2018-12-23T03:43:11.818Z,10.01
2018-12-23T03:44:11.835Z,10.03
2018-12-23T03:45:11.839Z,10.09
2018-12-23T03:46:11.818Z,10.04
2018-12-23T03:47:11.777Z,9.97
2018-12-23T03:48:11.781Z,10.01
2018-12-23T03:49:11.797Z,10.04
2018-12-23T03:50:11.774Z,9.93
2018-12-23T03:51:11.809Z,10.04
2018-12-23T03:52:11.753Z,10.04
2018-12-23T03:53:11.749Z,9.93
2018-12-23T03:54:11.728Z,10.03
2018-12-23T03:55:11.937Z,9.97
2018-12-23T03:56:11.757Z,10.06
2018-12-23T03:57:11.733Z,10.03
2018-12-23T03:58:11.711Z,9.96
2018-12-23T03:59:11.731Z,9.94
2018-12-23T04:00:11.699Z,10.09
2018-12-23T04:01:11.695Z,10.00
2018-12-23T04:02:11.754Z,10.07
2018-12-23T04:03:11.689Z,10.09
2018-12-23T04:04:11.735Z,10.03
2018-12-23T04:05:11.673Z,10.03
2018-12-23T04:06:11.685Z,9.96
2018-12-23T04:07:11.681Z,9.99
2018-12-23T04:08:11.659Z,9.97
2018-12-23T04:09:11.691Z,10.01
2018-12-23T04:10:11.674Z,10.06
2018-12-23T04:11:11.639Z,10.06
2018-12-23T04:12:11.646Z,10.03
2018-12-23T04:13:11.635Z,10.00
2018-12-23T04:14:11.629Z,10.09
2018-12-23T04:15:11.620Z,9.97
2018-12-23T04:16:11.612Z,10.00
2018-12-23T04:17:11.596Z,10.06
2018-12-23T04:18:11.594Z,10.03
2018-12-23T04:19:11.603Z,9.96
2018-12-23T04:20:11.600Z,10.03
2018-12-23T04:21:11.573Z,10.01
2018-12-23T04:22:11.571Z,10.10
2018-12-23T04:23:11.553Z,10.00
2018-12-23T04:24:11.601Z,9.99
2018-12-23T04:25:11.557Z,9.99
2018-12-23T04:26:11.572Z,10.01
2018-12-23T04:27:11.533Z,9.99
2018-12-23T04:28:11.541Z,9.99
2018-12-23T04:29:11.551Z,9.99
2018-12-23T04:30:11.524Z,9.99
2018-12-23T04:31:11.529Z,10.00
2018-12-23T04:32:11.504Z,9.88
2018-12-23T04:33:11.566Z,9.94
2018-12-23T04:34:11.489Z,9.97
2018-12-23T04:35:11.490Z,9.88
2018-12-23T04:36:11.476Z,9.97
2018-12-23T04:37:11.474Z,9.88
2018-12-23T04:38:11.501Z,9.94
2018-12-23T04:39:11.495Z,9.96
2018-12-23T04:40:11.464Z,9.93
2018-12-23T04:41:11.462Z,9.94
2018-12-23T04:42:11.458Z,9.85
2018-12-23T04:43:11.429Z,9.96
2018-12-23T04:44:11.433Z,9.99
2018-12-23T04:45:11.451Z,9.93
2018-12-23T04:46:11.428Z,9.94
2018-12-23T04:47:11.449Z,9.96
2018-12-23T04:48:20.625Z,9.99
2018-12-23T04:50:06.410Z,9.93
2018-12-23T04:51:06.007Z,10.00
2018-12-23T04:52:06.037Z,9.97
2018-12-23T04:53:05.992Z,10.00
2018-12-23T04:54:15.347Z,9.96
2018-12-23T04:56:10.469Z,9.97
2018-12-23T04:57:10.438Z,9.97
2018-12-23T04:58:10.431Z,9.97
2018-12-23T04:59:10.431Z,10.01
2018-12-23T05:00:10.434Z,9.94
2018-12-23T05:01:10.423Z,9.99
2018-12-23T05:02:10.444Z,9.97
2018-12-23T05:03:10.422Z,9.99
2018-12-23T05:04:10.439Z,9.97
2018-12-23T05:05:10.393Z,10.00
2018-12-23T05:06:10.413Z,9.96
2018-12-23T05:07:10.401Z,9.96
2018-12-23T05:08:10.400Z,10.00
2018-12-23T05:09:10.403Z,9.97
2018-12-23T05:10:10.361Z,9.94
2018-12-23T05:11:10.364Z,10.00
2018-12-23T05:12:10.347Z,10.01
2018-12-23T05:13:10.344Z,10.06
2018-12-23T05:14:10.351Z,9.96
2018-12-23T05:15:10.375Z,9.97
2018-12-23T05:16:10.363Z,10.00
2018-12-23T05:17:10.322Z,10.04
2018-12-23T05:18:10.332Z,9.96
2018-12-23T05:19:10.329Z,9.97
2018-12-23T05:20:10.301Z,9.94
2018-12-23T05:21:10.296Z,9.96
2018-12-23T05:22:10.303Z,9.96
2018-12-23T05:23:10.295Z,9.99
2018-12-23T05:24:10.288Z,10.03
2018-12-23T05:25:10.274Z,9.97
2018-12-23T05:26:10.286Z,10.01
2018-12-23T05:27:10.265Z,10.06
2018-12-23T05:28:10.244Z,10.01
2018-12-23T05:29:10.262Z,10.03
2018-12-23T05:30:10.233Z,9.99
2018-12-23T05:31:10.311Z,9.99
2018-12-23T05:32:10.226Z,9.97
2018-12-23T05:33:10.242Z,9.99
2018-12-23T05:34:10.221Z,10.00
2018-12-23T05:35:10.240Z,10.00
2018-12-23T05:36:10.204Z,9.94
2018-12-23T05:37:10.229Z,9.97
2018-12-23T05:38:10.203Z,10.03
2018-12-23T05:39:10.183Z,10.00
2018-12-23T05:40:10.206Z,9.97
2018-12-23T05:41:10.191Z,10.06
2018-12-23T05:42:10.173Z,10.06
2018-12-23T05:43:10.202Z,10.06
2018-12-23T05:44:10.182Z,10.03
2018-12-23T05:45:10.142Z,10.14
2018-12-23T05:46:10.165Z,10.10
2018-12-23T05:47:10.141Z,9.94
2018-12-23T05:48:10.127Z,10.10
2018-12-23T05:49:10.156Z,10.10
2018-12-23T05:50:10.141Z,10.04
2018-12-23T05:51:10.142Z,10.06
2018-12-23T05:52:10.106Z,10.10
2018-12-23T05:53:10.105Z,10.09
2018-12-23T05:54:10.114Z,10.06
2018-12-23T05:55:10.092Z,10.01
2018-12-23T05:56:10.135Z,10.01
2018-12-23T05:57:10.090Z,10.06
2018-12-23T05:58:10.104Z,9.96
2018-12-23T05:59:10.081Z,9.96
2018-12-23T06:00:10.059Z,10.07
2018-12-23T06:01:10.059Z,10.04
2018-12-23T06:02:10.038Z,10.04
2018-12-23T06:03:10.048Z,10.06
2018-12-23T06:04:10.048Z,10.06
2018-12-23T06:05:18.678Z,10.06
2018-12-23T06:07:14.513Z,10.01
2018-12-23T06:08:14.496Z,10.04
2018-12-23T06:09:14.521Z,10.03
2018-12-23T06:10:14.476Z,10.10
2018-12-23T06:11:14.482Z,10.03
2018-12-23T06:12:14.476Z,10.01
2018-12-23T06:13:14.469Z,10.03
2018-12-23T06:14:14.446Z,10.10
2018-12-23T06:15:14.489Z,10.03
2018-12-23T06:16:14.449Z,10.06
2018-12-23T06:17:14.434Z,10.09
2018-12-23T06:18:14.443Z,10.03
2018-12-23T06:19:14.439Z,10.03
2018-12-23T06:20:14.445Z,10.06
2018-12-23T06:21:14.406Z,10.01
2018-12-23T06:22:14.396Z,10.06
2018-12-23T06:23:14.396Z,10.01
2018-12-23T06:24:14.402Z,10.12
2018-12-23T06:25:14.389Z,10.06
2018-12-23T06:26:14.396Z,10.06
2018-12-23T06:27:14.386Z,10.09
2018-12-23T06:28:14.379Z,10.04
2018-12-23T06:29:14.379Z,10.04
2018-12-23T06:30:14.361Z,10.06
2018-12-23T06:31:14.348Z,10.01
2018-12-23T06:32:14.367Z,10.03
2018-12-23T06:33:14.343Z,10.10
2018-12-23T06:34:14.337Z,10.07
2018-12-23T06:35:14.327Z,10.03
2018-12-23T06:36:14.369Z,10.09
2018-12-23T06:37:14.315Z,10.07
2018-12-23T06:38:14.307Z,10.09
2018-12-23T06:39:14.302Z,10.10
2018-12-23T06:40:14.290Z,10.06
2018-12-23T06:41:14.311Z,10.01
2018-12-23T06:42:14.315Z,10.07
2018-12-23T06:43:14.297Z,10.01
2018-12-23T06:44:14.282Z,10.03
2018-12-23T06:45:14.273Z,10.04
2018-12-23T06:46:14.260Z,9.93
2018-12-23T06:47:14.255Z,10.09
2018-12-23T06:48:14.245Z,10.06
2018-12-23T06:49:14.250Z,9.93
2018-12-23T06:50:14.240Z,9.96
2018-12-23T06:51:14.240Z,10.03
2018-12-23T06:52:14.296Z,10.03
2018-12-23T06:53:14.213Z,9.97
2018-12-23T06:54:14.225Z,10.06
2018-12-23T06:55:14.277Z,9.94
2018-12-23T06:56:14.206Z,9.96
2018-12-23T06:57:14.201Z,9.97
2018-12-23T06:58:14.195Z,10.04
2018-12-23T06:59:14.188Z,9.99
2018-12-23T07:00:14.184Z,10.09
2018-12-23T07:01:14.198Z,10.06
2018-12-23T07:02:14.158Z,10.04
2018-12-23T07:03:14.158Z,10.09
2018-12-23T07:04:14.161Z,10.06
2018-12-23T07:05:14.153Z,10.06
2018-12-23T07:06:14.141Z,10.01
2018-12-23T07:07:18.609Z,10.06
2018-12-23T07:08:14.145Z,10.00
2018-12-23T07:09:14.151Z,9.94
2018-12-23T07:10:14.122Z,10.06
2018-12-23T07:11:14.113Z,10.00
2018-12-23T07:12:14.107Z,9.97
2018-12-23T07:13:14.097Z,10.01
2018-12-23T07:14:14.108Z,9.99
2018-12-23T07:15:14.089Z,9.88
2018-12-23T07:16:14.106Z,10.00
2018-12-23T07:17:14.097Z,9.96
2018-12-23T07:18:14.065Z,9.85
2018-12-23T07:19:14.069Z,9.97
2018-12-23T07:20:22.741Z,9.99
2018-12-23T07:22:18.562Z,9.97
2018-12-23T07:23:18.558Z,9.97
2018-12-23T07:24:18.516Z,9.99
2018-12-23T07:25:18.502Z,9.97
2018-12-23T07:26:18.614Z,9.97
2018-12-23T07:27:18.495Z,9.96
2018-12-23T07:28:18.483Z,9.99
2018-12-23T07:29:18.496Z,10.01
2018-12-23T07:30:18.482Z,9.96
2018-12-23T07:31:18.503Z,9.93
2018-12-23T07:32:18.483Z,9.97
2018-12-23T07:33:18.460Z,10.06
2018-12-23T07:34:18.451Z,10.03
2018-12-23T07:35:18.442Z,10.01
2018-12-23T07:36:18.453Z,9.96
2018-12-23T07:37:18.438Z,9.96
2018-12-23T07:38:18.456Z,10.03
2018-12-23T07:39:18.419Z,10.03
2018-12-23T07:40:18.409Z,9.94
2018-12-23T07:41:18.412Z,10.04
2018-12-23T07:42:18.403Z,10.03
2018-12-23T07:43:18.416Z,10.01
2018-12-23T07:44:18.395Z,10.04
2018-12-23T07:45:18.384Z,10.09
2018-12-23T07:46:18.373Z,10.09
2018-12-23T07:47:18.370Z,10.06
2018-12-23T07:48:18.370Z,10.06
2018-12-23T07:49:18.355Z,10.03
2018-12-23T07:50:18.373Z,10.04
2018-12-23T07:51:18.366Z,10.03
2018-12-23T07:52:18.347Z,10.01
2018-12-23T07:53:18.353Z,10.07
2018-12-23T07:54:18.329Z,10.07
2018-12-23T07:55:18.325Z,10.12
2018-12-23T07:56:18.343Z,10.04
2018-12-23T07:57:18.324Z,10.10
2018-12-23T07:58:18.307Z,10.21
2018-12-23T07:59:18.357Z,10.14
2018-12-23T08:00:18.285Z,10.01
2018-12-23T08:01:18.290Z,10.04
2018-12-23T08:02:18.315Z,10.21
2018-12-23T08:03:18.277Z,10.22
2018-12-23T08:04:18.310Z,10.15
2018-12-23T08:05:18.264Z,10.12
2018-12-23T08:06:18.301Z,10.12
2018-12-23T08:07:18.288Z,10.26
2018-12-23T08:08:18.249Z,10.19
2018-12-23T08:09:18.254Z,10.19
2018-12-23T08:10:18.267Z,10.21
2018-12-23T08:11:18.226Z,10.19
2018-12-23T08:12:18.243Z,10.25
2018-12-23T08:13:18.231Z,10.26
2018-12-23T08:14:18.235Z,10.26
2018-12-23T08:15:18.261Z,10.25
2018-12-23T08:16:18.194Z,10.24
2018-12-23T08:17:18.242Z,10.25
2018-12-23T08:18:18.186Z,10.26
2018-12-23T08:19:18.180Z,10.37
2018-12-23T08:20:18.201Z,10.25
2018-12-23T08:21:18.170Z,10.36
2018-12-23T08:22:18.185Z,10.24
2018-12-23T08:23:18.163Z,10.33
2018-12-23T08:24:18.181Z,10.37
2018-12-23T08:25:18.193Z,10.32
2018-12-23T08:26:18.202Z,10.34
2018-12-23T08:27:18.138Z,10.37
2018-12-23T08:28:18.152Z,10.30
2018-12-23T08:29:18.171Z,10.36
2018-12-23T08:30:18.120Z,10.39
2018-12-23T08:31:18.138Z,10.25
2018-12-23T08:32:18.101Z,10.42
2018-12-23T08:33:18.099Z,10.28
2018-12-23T08:34:18.128Z,10.30
2018-12-23T08:35:18.112Z,10.42
2018-12-23T08:36:18.079Z,10.36
2018-12-23T08:37:18.094Z,10.24
2018-12-23T08:38:18.109Z,10.39
2018-12-23T08:39:18.064Z,10.39
2018-12-23T08:40:18.131Z,10.39
2018-12-23T08:41:18.113Z,10.36
2018-12-23T08:42:18.102Z,10.39
2018-12-23T08:43:18.111Z,10.30
2018-12-23T08:44:18.049Z,10.33
2018-12-23T08:45:18.102Z,10.40
2018-12-23T08:46:18.057Z,10.40
2018-12-23T08:47:18.066Z,10.42
2018-12-23T08:48:18.045Z,10.43
2018-12-23T08:49:18.006Z,10.40
2018-12-23T08:50:17.996Z,10.37
2018-12-23T08:51:18.027Z,10.42
2018-12-23T08:52:17.999Z,10.47
2018-12-23T08:53:17.991Z,10.40
2018-12-23T08:54:18.007Z,10.47
2018-12-23T08:55:27.649Z,10.51
2018-12-23T08:57:22.518Z,10.40
2018-12-23T08:58:22.443Z,10.39
2018-12-23T08:59:31.120Z,10.42
2018-12-23T09:01:24.903Z,10.44
2018-12-23T09:02:25.319Z,10.42
2018-12-23T09:04:20.607Z,10.55
2018-12-23T09:05:20.541Z,10.56
2018-12-23T09:06:20.546Z,10.56
2018-12-23T09:07:20.538Z,10.53
2018-12-23T09:08:20.517Z,10.53
2018-12-23T09:09:20.507Z,10.55
2018-12-23T09:10:20.486Z,10.52
2018-12-23T09:11:20.481Z,10.52
2018-12-23T09:12:20.476Z,10.59
2018-12-23T09:13:20.469Z,10.63
2018-12-23T09:14:20.504Z,10.59
2018-12-23T09:15:20.472Z,10.74
2018-12-23T09:16:20.446Z,10.76
2018-12-23T09:17:20.446Z,10.65
2018-12-23T09:18:20.446Z,10.68
2018-12-23T09:19:20.444Z,10.73
2018-12-23T09:20:20.456Z,10.70
2018-12-23T09:21:20.438Z,10.70
2018-12-23T09:22:20.435Z,10.70
2018-12-23T09:23:20.466Z,10.66
2018-12-23T09:24:20.423Z,10.76
2018-12-23T09:25:20.429Z,10.74
2018-12-23T09:26:20.453Z,10.66
2018-12-23T09:27:20.398Z,10.76
2018-12-23T09:28:20.460Z,10.74
2018-12-23T09:29:20.427Z,10.71
2018-12-23T09:30:20.419Z,10.74
2018-12-23T09:31:20.402Z,10.76
2018-12-23T09:32:20.378Z,10.76
2018-12-23T09:33:20.353Z,10.80
2018-12-23T09:34:20.342Z,10.81
2018-12-23T09:35:20.379Z,10.94
2018-12-23T09:36:20.353Z,10.84
2018-12-23T09:37:20.371Z,10.84
2018-12-23T09:38:20.357Z,10.95
2018-12-23T09:39:20.350Z,10.95
2018-12-23T09:40:20.339Z,10.92
2018-12-23T09:41:20.340Z,10.86
2018-12-23T09:42:20.356Z,11.01
2018-12-23T09:43:20.294Z,11.01
2018-12-23T09:44:20.331Z,11.03
2018-12-23T09:45:20.287Z,11.03
2018-12-23T09:46:20.359Z,11.07
2018-12-23T09:47:20.278Z,11.13
2018-12-23T09:48:20.278Z,10.99
2018-12-23T09:49:20.314Z,11.02
2018-12-23T09:50:20.291Z,11.03
2018-12-23T09:51:20.251Z,11.09
2018-12-23T09:52:20.304Z,11.09
2018-12-23T09:53:20.246Z,11.03
2018-12-23T09:54:20.240Z,11.20
2018-12-23T09:55:20.244Z,11.19
2018-12-23T09:56:20.266Z,11.19
2018-12-23T09:57:20.229Z,11.28
2018-12-23T09:58:20.243Z,11.24
2018-12-23T09:59:20.223Z,11.19
2018-12-23T10:00:20.199Z,11.28
2018-12-23T10:01:20.235Z,11.20
2018-12-23T10:02:20.255Z,11.19
2018-12-23T10:03:20.223Z,11.24
2018-12-23T10:04:20.188Z,11.07
2018-12-23T10:05:20.226Z,11.21
2018-12-23T10:06:20.202Z,11.20
2018-12-23T10:07:20.266Z,11.19
2018-12-23T10:08:20.183Z,11.20
2018-12-23T10:09:20.165Z,11.25
2018-12-23T10:10:28.172Z,11.21
2018-12-23T10:11:20.191Z,11.27
2018-12-23T10:12:20.170Z,11.25
2018-12-23T10:13:20.133Z,11.29
2018-12-23T10:14:20.135Z,11.29
2018-12-23T10:15:20.155Z,11.24
2018-12-23T10:16:20.146Z,11.32
2018-12-23T10:17:20.105Z,11.25
2018-12-23T10:18:20.121Z,11.31
2018-12-23T10:19:20.106Z,11.34
2018-12-23T10:20:20.130Z,11.27
2018-12-23T10:21:20.121Z,11.28
2018-12-23T10:22:20.091Z,11.35
2018-12-23T10:23:20.170Z,11.25
2018-12-23T10:24:20.099Z,11.28
2018-12-23T10:25:20.165Z,11.32
2018-12-23T10:26:20.148Z,11.31
2018-12-23T10:27:20.068Z,11.36
2018-12-23T10:28:20.075Z,11.35
2018-12-23T10:29:20.064Z,11.38
2018-12-23T10:30:20.083Z,11.32
2018-12-23T10:31:20.045Z,11.44
2018-12-23T10:32:20.027Z,11.46
2018-12-23T10:33:20.037Z,11.46
2018-12-23T10:34:20.027Z,11.49
2018-12-23T10:35:20.013Z,11.41
2018-12-23T10:36:20.010Z,11.50
2018-12-23T10:37:20.112Z,11.41
2018-12-23T10:38:20.020Z,11.46
2018-12-23T10:39:19.994Z,11.35
2018-12-23T10:40:19.991Z,11.41
2018-12-23T10:41:19.992Z,11.46
2018-12-23T10:42:19.977Z,11.38
2018-12-23T10:43:19.978Z,11.38
2018-12-23T10:44:19.964Z,11.35
2018-12-23T10:45:19.957Z,11.44
2018-12-23T10:46:19.964Z,11.43
2018-12-23T10:47:19.973Z,11.46
2018-12-23T10:48:19.945Z,11.41
2018-12-23T10:49:19.939Z,11.44
2018-12-23T10:50:19.941Z,11.39
2018-12-23T10:51:19.933Z,11.39
2018-12-23T10:52:20.056Z,11.35
2018-12-23T10:53:19.915Z,11.46
2018-12-23T10:54:19.919Z,11.39
2018-12-23T10:55:19.921Z,11.43
2018-12-23T10:56:19.903Z,11.38
2018-12-23T10:57:19.908Z,11.36
2018-12-23T10:58:19.892Z,11.36
2018-12-23T10:59:19.893Z,11.43
2018-12-23T11:00:20.085Z,11.39
2018-12-23T11:01:19.902Z,11.34
2018-12-23T11:02:19.875Z,11.35
2018-12-23T11:03:19.881Z,11.38
2018-12-23T11:04:19.863Z,11.36
2018-12-23T11:05:19.863Z,11.36
2018-12-23T11:06:19.865Z,11.28
2018-12-23T11:07:19.860Z,11.38
2018-12-23T11:08:26.848Z,11.38
2018-12-23T11:09:19.841Z,11.36
2018-12-23T11:10:19.848Z,11.41
2018-12-23T11:11:19.983Z,11.29
2018-12-23T11:12:19.827Z,11.34
2018-12-23T11:13:19.867Z,11.31
2018-12-23T11:14:19.822Z,11.29
2018-12-23T11:15:19.832Z,11.41
2018-12-23T11:16:19.799Z,11.38
2018-12-23T11:17:19.790Z,11.44
2018-12-23T11:18:19.802Z,11.35
2018-12-23T11:19:19.787Z,11.34
2018-12-23T11:20:19.781Z,11.39
2018-12-23T11:21:19.774Z,11.39
2018-12-23T11:22:19.783Z,11.28
2018-12-23T11:23:19.824Z,11.35
2018-12-23T11:24:19.782Z,11.41
2018-12-23T11:25:19.805Z,11.32
2018-12-23T11:26:19.819Z,11.38
2018-12-23T11:27:19.768Z,11.38
2018-12-23T11:28:19.755Z,11.38
2018-12-23T11:29:19.755Z,11.31
2018-12-23T11:30:19.733Z,11.34
2018-12-23T11:31:19.738Z,11.38
2018-12-23T11:32:19.730Z,11.36
2018-12-23T11:33:19.767Z,11.34
2018-12-23T11:34:19.868Z,11.32
2018-12-23T11:35:19.706Z,11.39
2018-12-23T11:36:19.717Z,11.35
2018-12-23T11:37:19.724Z,11.38
2018-12-23T11:38:19.694Z,11.25
2018-12-23T11:39:19.725Z,11.28
2018-12-23T11:40:19.688Z,11.32
2018-12-23T11:41:19.663Z,11.25
2018-12-23T11:42:19.719Z,11.29
2018-12-23T11:43:19.682Z,11.27
2018-12-23T11:44:19.742Z,11.39
2018-12-23T11:45:19.671Z,11.38
2018-12-23T11:46:19.793Z,11.38
2018-12-23T11:47:19.872Z,11.28
2018-12-23T11:48:19.649Z,11.29
2018-12-23T11:49:19.638Z,11.29
2018-12-23T11:50:19.651Z,11.21
2018-12-23T11:51:19.618Z,11.24
2018-12-23T11:52:19.610Z,11.21
2018-12-23T11:53:19.608Z,11.28
2018-12-23T11:54:19.621Z,11.27
2018-12-23T11:55:19.587Z,11.21
2018-12-23T11:56:19.607Z,11.19
2018-12-23T11:57:19.584Z,11.21
2018-12-23T11:58:19.592Z,11.09
2018-12-23T11:59:19.588Z,11.10
2018-12-23T12:00:19.564Z,11.10
2018-12-23T12:01:19.562Z,11.10
2018-12-23T12:02:19.569Z,11.07
2018-12-23T12:03:19.565Z,11.10
2018-12-23T12:04:19.586Z,11.10
2018-12-23T12:05:19.547Z,11.07
2018-12-23T12:06:19.543Z,11.06
2018-12-23T12:07:19.521Z,11.09
2018-12-23T12:08:19.519Z,11.06
2018-12-23T12:09:19.518Z,11.09
2018-12-23T12:10:19.518Z,11.09
2018-12-23T12:11:19.541Z,11.13
2018-12-23T12:12:19.501Z,11.14
2018-12-23T12:13:19.488Z,11.14
2018-12-23T12:14:19.492Z,11.07
2018-12-23T12:15:19.482Z,11.03
2018-12-23T12:16:19.478Z,11.06
2018-12-23T12:17:19.474Z,11.06
2018-12-23T12:18:19.466Z,11.01
2018-12-23T12:19:19.466Z,10.99
2018-12-23T12:20:19.476Z,11.02
2018-12-23T12:21:19.456Z,10.99
2018-12-23T12:22:19.480Z,10.83
2018-12-23T12:23:19.462Z,10.98
2018-12-23T12:24:19.433Z,10.99
2018-12-23T12:25:19.454Z,10.95
2018-12-23T12:26:19.452Z,10.92
2018-12-23T12:27:19.451Z,10.99
2018-12-23T12:28:19.441Z,10.81
2018-12-23T12:29:19.398Z,10.81
2018-12-23T12:30:19.421Z,10.86
2018-12-23T12:31:19.423Z,10.84
2018-12-23T12:32:19.396Z,10.86
2018-12-23T12:33:19.376Z,10.83
2018-12-23T12:34:19.403Z,10.80
2018-12-23T12:35:19.370Z,10.86
2018-12-23T12:36:19.376Z,10.83
2018-12-23T12:37:19.355Z,10.76
2018-12-23T12:38:19.356Z,10.86
2018-12-23T12:39:19.354Z,10.83
2018-12-23T12:40:19.358Z,10.76
2018-12-23T12:41:19.337Z,10.74
2018-12-23T12:42:19.341Z,10.83
2018-12-23T12:43:19.332Z,10.88
2018-12-23T12:44:20.614Z,10.81
2018-12-23T12:45:19.313Z,10.77
2018-12-23T12:46:19.334Z,10.77
2018-12-23T12:47:19.301Z,10.77
2018-12-23T12:48:19.309Z,10.81
2018-12-23T12:49:19.293Z,10.74
2018-12-23T12:50:19.322Z,10.77
2018-12-23T12:51:19.284Z,10.74
2018-12-23T12:52:19.281Z,10.70
2018-12-23T12:53:19.293Z,10.71
2018-12-23T12:54:19.294Z,10.71
2018-12-23T12:55:19.332Z,10.77
2018-12-23T12:56:19.316Z,10.77
2018-12-23T12:57:19.247Z,10.76
2018-12-23T12:58:19.259Z,10.66
2018-12-23T12:59:19.321Z,10.70
2018-12-23T13:00:19.257Z,10.71
2018-12-23T13:01:19.260Z,10.74
2018-12-23T13:02:19.258Z,10.71
2018-12-23T13:03:19.275Z,10.76
2018-12-23T13:04:19.263Z,10.58
2018-12-23T13:05:19.217Z,10.60
2018-12-23T13:06:19.199Z,10.73
2018-12-23T13:07:19.201Z,10.63
2018-12-23T13:08:19.198Z,10.74
2018-12-23T13:09:19.179Z,10.59
2018-12-23T13:10:19.175Z,10.71
2018-12-23T13:11:19.175Z,10.65
2018-12-23T13:12:19.181Z,10.70
2018-12-23T13:13:19.187Z,10.71
2018-12-23T13:14:19.177Z,10.73
2018-12-23T13:15:19.161Z,10.66
2018-12-23T13:16:19.141Z,10.74
2018-12-23T13:17:19.136Z,10.62
2018-12-23T13:18:19.135Z,10.71
2018-12-23T13:19:19.131Z,10.68
2018-12-23T13:20:19.123Z,10.68
2018-12-23T13:21:19.111Z,10.70
2018-12-23T13:22:19.109Z,10.71
2018-12-23T13:23:19.107Z,10.74